Time;durP1;ratioP1;P1;durP2;ratioP2;P2;SDS_P1;SDS_P2;PMS_P1;PMS_P2;Temp;Humidity;BMP_temperature;BMP_pressure;BME280_temperature;BME280_humidity;BME280_pressure;Samples;Min_cycle;Max_cycle;Signal;HPM_P1;HPM_P2
2022/01/04 00:00:43;;;;;;;24.15;11.73;;;;;;;12.48;60.17;97700.97;4487063;32;20435;-78
2022/01/04 00:03:10;;;;;;;24.23;12.68;;;;;;;12.25;60.57;97702.25;4488300;32;20164;-78
2022/01/04 00:05:38;;;;;;;23.92;11.98;;;;;;;12.80;58.92;97693.97;4487845;32;20084;-78
2022/01/04 00:08:08;;;;;;;23.55;12.18;;;;;;;13.26;57.15;97708.53;4488240;32;20084;-78
2022/01/04 00:10:35;;;;;;;24.63;12.75;;;;;;;12.95;57.89;97700.84;4474374;32;20499;-78
2022/01/04 00:15:50;;;;;;;27.55;12.85;;;;;;;13.56;56.23;97692.09;4487945;32;20172;-79
2022/01/04 00:18:18;;;;;;;22.73;11.20;;;;;;;13.42;56.58;97686.91;4488239;32;20132;-78
2022/01/04 00:20:46;;;;;;;23.42;12.40;;;;;;;14.51;53.33;97681.03;4487935;32;20148;-79
2022/01/04 00:23:15;;;;;;;21.85;12.10;;;;;;;14.46;53.27;97676.09;4488181;32;20458;-79
2022/01/04 00:25:42;;;;;;;24.20;11.93;;;;;;;14.20;54.25;97677.75;4473900;32;20084;-78
2022/01/04 00:28:10;;;;;;;21.65;11.40;;;;;;;14.04;54.78;97674.47;4487753;32;20072;-78
2022/01/04 00:30:38;;;;;;;21.20;10.80;;;;;;;13.17;57.78;97669.34;4488090;32;20144;-78
2022/01/04 00:33:07;;;;;;;22.20;11.18;;;;;;;12.40;60.76;97665.16;4473934;32;20151;-78
2022/01/04 00:35:35;;;;;;;23.33;11.65;;;;;;;12.09;62.38;97674.63;4473698;32;20171;-78
2022/01/04 00:38:02;;;;;;;25.15;11.82;;;;;;;11.88;62.74;97679.22;4487780;32;20136;-78
2022/01/04 00:40:29;;;;;;;23.50;11.40;;;;;;;11.95;63.08;97668.53;4473722;32;20487;-78
2022/01/04 00:42:58;;;;;;;22.92;11.52;;;;;;;12.28;61.85;97666.69;4473540;32;20155;-78
2022/01/04 00:45:26;;;;;;;24.10;12.02;;;;;;;12.14;62.48;97659.72;4487854;32;20101;-78
2022/01/04 00:50:21;;;;;;;24.25;11.15;;;;;;;11.68;64.18;97660.47;4487914;32;20144;-78
2022/01/04 00:52:49;;;;;;;27.77;12.50;;;;;;;11.19;66.05;97663.06;4487737;32;20136;-78
2022/01/04 00:55:16;;;;;;;26.12;13.23;;;;;;;10.91;67.65;97653.28;4487489;32;20147;-79
2022/01/04 00:57:43;;;;;;;24.15;11.45;;;;;;;10.28;69.60;97637.47;4487712;32;20102;-78
2022/01/04 01:00:13;;;;;;;25.20;12.23;;;;;;;10.46;69.39;97636.59;4487644;32;20081;-78
2022/01/04 01:02:41;;;;;;;24.27;11.55;;;;;;;10.92;68.19;97636.88;4487335;32;20127;-78
2022/01/04 01:05:09;;;;;;;26.87;13.45;;;;;;;10.94;67.75;97637.63;4473620;32;20097;-78
2022/01/04 01:07:37;;;;;;;25.00;12.10;;;;;;;10.97;68.00;97637.50;4487680;32;20068;-78
2022/01/04 01:10:39;;;;;;;24.77;11.82;;;;;;;11.36;66.18;97628.59;4472973;32;20431;-79
2022/01/04 01:13:05;;;;;;;26.23;13.10;;;;;;;11.13;66.84;97616.88;4487745;32;20133;-78
2022/01/04 01:15:33;;;;;;;26.48;12.85;;;;;;;11.10;66.63;97620.47;4487353;32;20411;-78
2022/01/04 01:18:00;;;;;;;25.75;12.30;;;;;;;11.37;65.25;97612.19;4487404;32;20131;-78
2022/01/04 01:20:27;;;;;;;28.05;13.10;;;;;;;11.46;65.38;97609.94;4487631;32;20148;-78
2022/01/04 01:22:54;;;;;;;25.83;13.23;;;;;;;11.41;64.82;97611.94;4487405;32;20100;-78
2022/01/04 01:25:21;;;;;;;24.30;11.98;;;;;;;11.57;64.04;97602.44;4487625;32;20403;-78
2022/01/04 01:27:48;;;;;;;24.45;12.07;;;;;;;11.94;62.57;97594.50;4473501;32;20102;-78
2022/01/04 01:30:15;;;;;;;22.30;11.10;;;;;;;11.77;62.84;97585.87;4473174;32;20502;-78
2022/01/04 01:32:42;;;;;;;22.58;11.05;;;;;;;12.18;61.47;97585.34;4487744;32;20100;-78
2022/01/04 01:35:09;;;;;;;22.37;10.57;;;;;;;12.22;61.03;97579.06;4473592;32;20110;-78
2022/01/04 01:37:36;;;;;;;20.23;10.18;;;;;;;12.15;61.64;97570.84;4487290;32;20477;-78
2022/01/04 01:40:04;;;;;;;20.42;10.07;;;;;;;12.29;61.19;97569.22;4487391;32;20143;-78
2022/01/04 01:42:31;;;;;;;20.23;9.30;;;;;;;11.77;62.35;97567.78;4487660;32;20107;-78
2022/01/04 01:44:58;;;;;;;20.27;9.38;;;;;;;11.26;64.92;97571.41;4487374;32;20494;-78
2022/01/04 01:47:25;;;;;;;20.85;9.00;;;;;;;11.25;64.74;97565.41;4487506;32;20454;-78
2022/01/04 01:49:52;;;;;;;18.62;9.18;;;;;;;11.18;65.71;97561.50;4487399;32;20435;-78
2022/01/04 01:52:20;;;;;;;19.37;8.25;;;;;;;11.56;63.93;97553.44;4473339;32;20518;-78
2022/01/04 01:54:47;;;;;;;17.42;8.48;;;;;;;12.06;62.50;97550.69;4473285;32;20167;-78
2022/01/04 01:57:14;;;;;;;18.67;8.23;;;;;;;11.73;63.53;97550.78;4473347;32;20379;-78
2022/01/04 01:59:41;;;;;;;19.67;8.80;;;;;;;11.24;65.13;97553.44;4487049;32;20112;-78
2022/01/04 02:02:08;;;;;;;18.23;8.70;;;;;;;10.82;67.14;97547.94;4487729;32;20111;-78
2022/01/04 02:04:35;;;;;;;20.08;9.00;;;;;;;10.92;66.99;97549.13;4487786;32;20141;-78
2022/01/04 02:07:02;;;;;;;17.75;8.15;;;;;;;11.27;65.74;97544.69;4487556;32;20139;-78
2022/01/04 02:09:31;;;;;;;17.92;8.70;;;;;;;11.01;66.75;97539.16;4487659;32;20120;-78
2022/01/04 02:11:59;;;;;;;16.30;7.80;;;;;;;11.00;67.13;97534.06;4487279;32;20096;-78
2022/01/04 02:14:26;;;;;;;18.85;9.07;;;;;;;11.17;66.60;97515.97;4472737;32;20076;-78
2022/01/04 02:16:53;;;;;;;18.42;7.82;;;;;;;10.92;67.89;97518.97;4487094;32;20080;-78
2022/01/04 02:19:21;;;;;;;17.05;8.15;;;;;;;10.52;69.73;97498.72;4486609;32;20100;-78
2022/01/04 02:21:48;;;;;;;17.80;7.87;;;;;;;11.04;67.67;97491.69;4487186;32;20486;-78
2022/01/04 02:24:15;;;;;;;17.12;7.18;;;;;;;10.75;68.84;97493.25;4486011;32;20136;-78
2022/01/04 02:26:42;;;;;;;18.98;8.25;;;;;;;10.99;67.95;97473.03;4486626;32;20076;-78
2022/01/04 02:29:09;;;;;;;18.37;7.85;;;;;;;11.00;67.77;97457.47;4486842;32;20167;-78
2022/01/04 02:31:36;;;;;;;17.00;8.13;;;;;;;11.04;67.61;97462.44;4487098;32;20132;-78
2022/01/04 02:34:04;;;;;;;16.70;7.50;;;;;;;10.77;68.74;97462.19;4486674;32;20103;-78
2022/01/04 02:36:31;;;;;;;16.83;7.72;;;;;;;11.06;67.56;97460.63;4486910;32;20080;-78
2022/01/04 02:38:58;;;;;;;17.35;7.95;;;;;;;11.08;67.48;97451.06;4472761;32;20131;-78
2022/01/04 02:41:25;;;;;;;16.65;7.47;;;;;;;10.88;68.39;97444.38;4472506;32;20164;-78
2022/01/04 02:43:52;;;;;;;17.25;8.35;;;;;;;10.71;68.97;97451.25;4472748;32;20412;-78
2022/01/04 02:46:19;;;;;;;18.27;8.35;;;;;;;10.35;69.91;97454.03;4486598;32;20151;-78
2022/01/04 02:48:46;;;;;;;17.70;8.00;;;;;;;10.79;68.72;97452.63;4486396;32;20427;-78
2022/01/04 02:51:13;;;;;;;20.02;9.05;;;;;;;11.06;67.14;97438.25;4486680;32;20159;-78
2022/01/04 02:53:40;;;;;;;19.98;8.88;;;;;;;10.67;68.11;97438.63;4486707;32;20098;-78
2022/01/04 02:56:07;;;;;;;18.20;7.70;;;;;;;10.97;66.75;97428.41;4486337;32;20124;-78
2022/01/04 02:58:34;;;;;;;17.85;8.60;;;;;;;10.60;68.46;97442.44;4486595;32;20157;-78
2022/01/04 03:01:02;;;;;;;18.30;8.48;;;;;;;10.67;68.14;97449.78;4486252;32;20084;-78
2022/01/04 03:03:31;;;;;;;18.60;8.57;;;;;;;10.64;67.52;97438.78;4472571;32;20103;-78
2022/01/04 03:05:58;;;;;;;19.25;8.25;;;;;;;10.26;69.24;97444.16;4486531;32;20463;-78
2022/01/04 03:08:25;;;;;;;18.65;7.85;;;;;;;10.90;66.65;97442.56;4486079;32;20160;-78
2022/01/04 03:10:52;;;;;;;17.48;8.65;;;;;;;10.84;66.47;97433.37;4486429;32;20467;-78
2022/01/04 03:13:18;;;;;;;20.33;9.70;;;;;;;10.82;66.87;97431.81;4486432;32;20155;-78
2022/01/04 03:15:46;;;;;;;19.65;8.75;;;;;;;10.76;67.18;97437.31;4485882;32;20084;-78
2022/01/04 03:18:14;;;;;;;21.45;9.65;;;;;;;10.69;67.24;97437.63;4472250;32;20124;-78
2022/01/04 03:20:41;;;;;;;22.33;9.98;;;;;;;10.33;68.56;97430.06;4486242;32;20144;-78
2022/01/04 03:23:10;;;;;;;21.42;9.65;;;;;;;10.47;68.04;97433.66;4485989;32;20140;-78
2022/01/04 03:25:38;;;;;;;25.12;10.45;;;;;;;10.67;66.29;97423.13;4486253;32;20076;-78
2022/01/04 03:28:05;;;;;;;20.12;9.93;;;;;;;10.80;66.29;97418.16;4486160;32;20132;-78
2022/01/04 03:30:32;;;;;;;23.52;10.52;;;;;;;10.96;64.98;97414.69;4485963;32;20135;-78
2022/01/04 03:33:00;;;;;;;18.33;8.90;;;;;;;11.19;63.53;97408.25;4486112;32;20205;-78
2022/01/04 03:35:27;;;;;;;19.95;8.95;;;;;;;10.69;65.47;97403.25;4487838;32;20459;-78
2022/01/04 03:37:54;;;;;;;21.45;10.20;;;;;;;10.53;66.01;97408.41;4488119;32;20104;-78
2022/01/04 03:40:21;;;;;;;20.02;10.05;;;;;;;10.61;65.26;97397.66;4488502;32;20139;-78
2022/01/04 03:42:48;;;;;;;24.30;10.23;;;;;;;10.49;66.02;97403.47;4488374;32;20081;-78
2022/01/04 03:45:15;;;;;;;23.27;10.93;;;;;;;9.04;70.62;97395.19;4488089;32;20131;-78
2022/01/04 03:47:43;;;;;;;25.23;10.63;;;;;;;9.98;68.61;97395.72;4488346;32;20149;-78
2022/01/04 03:50:10;;;;;;;22.27;11.15;;;;;;;9.52;69.96;97387.72;4488141;32;20162;-78
2022/01/04 03:52:37;;;;;;;23.35;10.77;;;;;;;9.87;69.14;97377.38;4488418;32;20089;-78
2022/01/04 03:55:08;;;;;;;24.45;11.05;;;;;;;9.99;68.06;97374.19;4488256;32;20135;-78
2022/01/04 03:57:35;;;;;;;22.95;10.10;;;;;;;10.03;67.48;97377.47;4473665;32;20100;-78
2022/01/04 04:00:06;;;;;;;21.90;9.90;;;;;;;9.45;69.58;97368.31;4488002;32;20148;-78
2022/01/04 04:02:33;;;;;;;21.37;10.40;;;;;;;9.53;69.24;97368.78;4488114;32;20387;-78
2022/01/04 04:05:00;;;;;;;20.65;9.73;;;;;;;9.67;68.12;97362.94;4487822;32;20092;-78
2022/01/04 04:07:31;;;;;;;20.50;9.15;;;;;;;9.77;67.55;97358.97;4488189;32;20101;-78
2022/01/04 04:09:58;;;;;;;25.17;9.75;;;;;;;9.66;68.56;97357.84;4488018;32;20116;-78
2022/01/04 04:12:25;;;;;;;18.15;8.45;;;;;;;9.49;69.55;97363.87;4487817;32;20093;-78
2022/01/04 04:14:52;;;;;;;17.85;7.10;;;;;;;8.88;74.12;97348.78;4487873;32;20419;-78
2022/01/04 04:17:19;;;;;;;15.07;6.25;;;;;;;8.74;75.99;97346.03;4488043;32;20164;-78
2022/01/04 04:19:46;;;;;;;16.95;6.75;;;;;;;8.03;80.20;97327.78;4487729;32;20092;-78
2022/01/04 04:22:13;;;;;;;14.07;6.00;;;;;;;8.28;80.00;97325.78;4487943;32;20085;-78
2022/01/04 04:24:41;;;;;;;16.75;6.45;;;;;;;8.16;80.51;97316.03;4487993;32;20111;-78
2022/01/04 04:27:08;;;;;;;14.13;5.90;;;;;;;8.26;80.81;97299.31;4487737;32;20096;-78
2022/01/04 04:29:34;;;;;;;;;;;;;;;8.50;80.38;97289.66;4488099;32;20096;-78
2022/01/04 04:32:03;;;;;;;13.98;4.85;;;;;;;9.13;77.79;97289.25;4488222;32;19968;-78
2022/01/04 04:34:30;;;;;;;14.32;5.82;;;;;;;9.18;77.50;97279.56;4487725;32;20100;-78
2022/01/04 04:36:57;;;;;;;12.40;5.05;;;;;;;9.79;75.02;97277.31;4487856;32;20156;-78
2022/01/04 04:39:23;;;;;;;14.40;5.80;;;;;;;9.80;74.93;97270.44;4487662;32;20501;-78
2022/01/04 04:41:50;;;;;;;12.52;4.68;;;;;;;10.17;72.69;97278.78;4488002;32;20151;-78
2022/01/04 04:44:17;;;;;;;14.90;5.80;;;;;;;9.75;74.76;97277.53;4487925;32;20081;-78
2022/01/04 04:46:44;;;;;;;;;;;;;;;9.70;74.48;97275.22;4487061;32;20501;-78
2022/01/04 04:49:11;;;;;;;14.57;6.37;;;;;;;9.72;73.38;97268.25;4487982;32;19976;-77
2022/01/04 04:51:38;;;;;;;12.95;6.07;;;;;;;9.89;72.13;97272.53;4487961;32;20140;-78
2022/01/04 04:54:05;;;;;;;13.38;5.45;;;;;;;9.63;72.35;97270.44;4487702;32;20181;-78
2022/01/04 04:56:34;;;;;;;;;;;;;;;9.59;72.45;97269.78;4488235;32;20103;-78
2022/01/04 04:59:01;;;;;;;14.77;6.90;;;;;;;9.07;74.50;97267.25;4487825;32;19975;-77
2022/01/04 05:01:28;;;;;;;15.95;7.15;;;;;;;9.02;73.79;97263.22;4473475;32;20215;-78
2022/01/04 05:03:55;;;;;;;14.30;6.15;;;;;;;9.09;72.65;97262.84;4487842;32;20107;-78
2022/01/04 05:06:22;;;;;;;16.52;7.20;;;;;;;8.50;75.17;97261.38;4473601;32;20153;-77
2022/01/04 05:08:49;;;;;;;15.85;6.72;;;;;;;8.30;76.51;97258.91;4487345;32;20131;-77
2022/01/04 05:11:16;;;;;;;16.87;7.15;;;;;;;7.79;78.92;97250.06;4487825;32;20181;-77
2022/01/04 05:13:42;;;;;;;;;;;;;;;8.23;78.38;97255.78;4488097;32;20140;-78
2022/01/04 05:16:10;;;;;;;18.23;7.60;;;;;;;8.09;78.82;97258.97;4487351;31;20052;-78
2022/01/04 05:18:37;;;;;;;15.50;7.10;;;;;;;8.28;78.15;97255.56;4487686;32;20092;-77
2022/01/04 05:21:04;;;;;;;17.67;7.90;;;;;;;8.37;76.90;97252.59;4487825;32;20103;-77
2022/01/04 05:23:32;;;;;;;17.75;7.25;;;;;;;8.74;75.48;97256.00;4487551;32;20081;-79
2022/01/04 05:25:58;;;;;;;16.42;7.07;;;;;;;8.53;75.82;97243.28;4473573;32;20097;-78
2022/01/04 05:28:25;;;;;;;16.70;6.80;;;;;;;8.33;77.68;97241.59;4473246;32;20128;-78
2022/01/04 05:30:52;;;;;;;12.77;5.45;;;;;;;8.21;78.10;97231.88;4487734;32;20138;-77
2022/01/04 05:33:19;;;;;;;14.27;5.37;;;;;;;7.92;80.55;97224.66;4487584;32;20098;-78
2022/01/04 05:35:48;;;;;;;14.38;5.80;;;;;;;8.10;80.00;97234.94;4487167;32;20132;-78
2022/01/04 05:38:15;;;;;;;13.35;4.82;;;;;;;8.50;78.26;97237.41;4487784;32;20100;-77
2022/01/04 05:40:42;;;;;;;14.60;5.62;;;;;;;7.97;80.65;97227.84;4488332;32;20098;-78
2022/01/04 05:43:09;;;;;;;12.45;5.03;;;;;;;8.48;78.34;97228.94;4487693;32;20106;-78
2022/01/04 05:45:36;;;;;;;15.57;5.37;;;;;;;8.46;78.29;97234.16;4487730;32;20100;-78
2022/01/04 05:48:04;;;;;;;13.70;5.70;;;;;;;8.57;77.54;97231.09;4487767;32;20092;-77
2022/01/04 05:50:31;;;;;;;14.80;5.95;;;;;;;8.66;76.71;97228.09;4487398;32;20166;-78
2022/01/04 05:52:58;;;;;;;15.45;6.12;;;;;;;8.86;75.97;97225.38;4487454;32;20111;-78
2022/01/04 05:55:25;;;;;;;13.48;5.57;;;;;;;8.52;77.19;97227.91;4473353;32;20566;-77
2022/01/04 05:57:52;;;;;;;;;;;;;;;8.00;79.21;97223.44;4487273;32;20088;-77
2022/01/04 06:00:19;;;;;;;15.98;6.10;;;;;;;8.36;78.37;97226.06;4473317;32;20245;-78
2022/01/04 06:02:46;;;;;;;16.17;5.85;;;;;;;8.15;79.23;97221.88;4487254;32;20096;-78
2022/01/04 06:05:13;;;;;;;13.93;5.68;;;;;;;8.31;78.92;97222.03;4486974;32;20080;-78
2022/01/04 06:07:40;;;;;;;14.50;5.90;;;;;;;7.59;82.06;97199.59;4487247;32;20755;-78
2022/01/04 06:10:09;;;;;;;14.95;6.05;;;;;;;8.52;77.98;97195.31;4487259;32;20171;-78
2022/01/04 06:15:09;;;;;;;13.57;5.57;;;;;;;8.59;77.64;97190.69;4486966;32;20511;-77
2022/01/04 06:17:43;;;;;;;14.25;5.53;;;;;;;8.52;78.10;97184.22;4486869;32;20423;-78
2022/01/04 06:20:13;;;;;;;14.32;5.60;;;;;;;8.68;76.96;97190.25;4487228;32;20175;-77
2022/01/04 06:22:40;;;;;;;14.68;5.80;;;;;;;8.18;79.40;97184.94;4487159;32;20580;-78
2022/01/04 06:25:12;;;;;;;14.32;5.53;;;;;;;7.94;80.88;97167.19;4486843;32;20084;-78
2022/01/04 06:27:43;;;;;;;14.85;5.53;;;;;;;8.05;81.72;97169.25;4487088;32;20100;-77
2022/01/04 06:30:14;;;;;;;12.70;4.62;;;;;;;8.61;78.96;97166.59;4487151;32;20098;-77
2022/01/04 06:32:45;;;;;;;12.85;5.20;;;;;;;8.43;78.98;97174.38;4486872;32;20152;-78
2022/01/04 06:35:13;;;;;;;13.65;5.65;;;;;;;7.89;82.05;97170.88;4487015;32;20585;-78
2022/01/04 06:37:45;;;;;;;13.82;5.80;;;;;;;8.18;81.02;97172.91;4472854;32;20518;-78
2022/01/04 06:40:13;;;;;;;16.20;5.97;;;;;;;8.25;79.73;97170.91;4486758;32;20103;-77
2022/01/04 06:42:39;;;;;;;13.23;4.80;;;;;;;8.20;80.23;97165.16;4472624;32;20143;-77
2022/01/04 06:45:07;;;;;;;14.30;5.43;;;;;;;7.78;82.38;97161.09;4486893;32;20109;-78
2022/01/04 06:47:34;;;;;;;14.13;5.28;;;;;;;7.89;82.50;97169.16;4486562;32;20111;-78
2022/01/04 06:50:01;;;;;;;13.05;5.07;;;;;;;7.90;82.43;97175.94;4472463;32;20167;-78
2022/01/04 06:52:28;;;;;;;15.07;6.00;;;;;;;8.01;81.38;97163.44;4486548;32;20164;-77
2022/01/04 06:54:55;;;;;;;13.75;5.68;;;;;;;7.88;82.56;97164.09;4472407;32;20115;-77
2022/01/04 06:57:22;;;;;;;14.00;5.40;;;;;;;7.58;83.87;97146.59;4486514;32;20111;-77
2022/01/04 06:59:49;;;;;;;12.45;5.28;;;;;;;7.78;82.65;97161.09;4472032;32;20120;-77
2022/01/04 07:02:16;;;;;;;12.43;5.03;;;;;;;7.93;82.07;97168.09;4486508;32;20164;-81
2022/01/04 07:04:44;;;;;;;15.07;6.15;;;;;;;8.05;81.72;97161.53;4486307;32;20088;-77
2022/01/04 07:07:12;;;;;;;15.05;5.55;;;;;;;8.49;79.62;97158.63;4486088;32;20097;-77
2022/01/04 07:09:39;;;;;;;13.40;6.03;;;;;;;8.87;78.35;97161.91;4473034;32;20457;-79
2022/01/04 07:12:06;;;;;;;13.48;5.35;;;;;;;8.46;80.04;97149.34;4488619;32;20140;-76
2022/01/04 07:14:33;;;;;;;11.85;4.78;;;;;;;8.95;78.95;97128.91;4487859;32;20089;-75
2022/01/04 07:17:00;;;;;;;11.12;4.03;;;;;;;9.39;77.63;97136.09;4488450;32;20148;-77
2022/01/04 07:19:27;;;;;;;10.35;3.72;;;;;;;9.33;79.07;97132.06;4487892;32;20194;-76
2022/01/04 07:21:54;;;;;;;9.50;3.55;;;;;;;9.26;79.87;97126.44;4491939;32;20084;-84
2022/01/04 07:24:21;;;;;;;11.15;3.90;;;;;;;9.91;77.56;97133.31;4495866;32;20109;-83
2022/01/04 07:26:48;;;;;;;10.98;3.60;;;;;;;9.87;77.79;97124.88;4492552;32;20065;-82
2022/01/04 07:29:15;;;;;;;9.60;3.87;;;;;;;9.69;78.56;97136.22;4497132;32;20111;-82
2022/01/04 07:31:43;;;;;;;10.70;4.53;;;;;;;10.01;76.85;97129.31;4495533;32;20105;-81
2022/01/04 07:34:09;;;;;;;11.50;3.95;;;;;;;9.77;78.56;97127.13;4498866;32;20538;-80
2022/01/04 07:36:36;;;;;;;12.57;5.18;;;;;;;10.59;74.02;97136.38;4494763;32;20112;-82
2022/01/04 07:39:03;;;;;;;12.48;5.72;;;;;;;10.76;72.22;97123.34;4496195;32;20076;-80
2022/01/04 07:41:30;;;;;;;10.60;4.57;;;;;;;10.33;73.16;97125.81;4495956;32;20469;-78
2022/01/04 07:43:58;;;;;;;12.93;4.70;;;;;;;10.10;74.28;97127.06;4490470;32;20084;-80
2022/01/04 07:46:25;;;;;;;12.23;5.20;;;;;;;10.36;73.44;97114.47;4494678;32;20100;-80
2022/01/04 07:48:53;;;;;;;11.90;4.55;;;;;;;10.70;72.18;97121.94;4479838;32;20277;-78
2022/01/04 07:51:20;;;;;;;12.30;4.43;;;;;;;10.56;72.77;97111.59;4479291;32;20100;-82
2022/01/04 07:53:47;;;;;;;9.02;3.42;;;;;;;11.33;70.15;97113.06;4492808;32;20061;-81
2022/01/04 07:56:17;;;;;;;10.90;3.85;;;;;;;11.19;71.51;97103.56;4498264;32;20096;-79
2022/01/04 07:58:45;;;;;;;10.85;4.35;;;;;;;11.24;71.47;97104.09;4495992;32;20084;-81
2022/01/04 08:01:13;;;;;;;8.73;3.25;;;;;;;11.94;69.09;97103.31;4498899;32;20531;-82
2022/01/04 08:03:40;;;;;;;9.88;3.85;;;;;;;12.08;68.28;97105.84;4498870;32;20093;-81
2022/01/04 08:06:07;;;;;;;11.27;4.45;;;;;;;11.74;69.35;97117.44;4498552;32;20087;-81
2022/01/04 08:08:34;;;;;;;12.00;4.70;;;;;;;11.53;69.27;97110.09;4496054;32;20104;-82
2022/01/04 08:11:01;;;;;;;11.48;4.30;;;;;;;11.24;70.59;97096.37;4491926;32;20092;-82
2022/01/04 08:13:30;;;;;;;12.20;4.87;;;;;;;11.67;68.79;97101.47;4495735;31;20076;-83
2022/01/04 08:15:57;;;;;;;12.37;5.15;;;;;;;11.74;68.43;97100.19;4495979;32;20069;-81
2022/01/04 08:18:24;;;;;;;12.30;5.18;;;;;;;11.97;67.37;97097.94;4470631;32;20060;-81
2022/01/04 08:20:56;;;;;;;11.82;4.65;;;;;;;12.17;66.56;97087.16;4496750;32;20087;-81
2022/01/04 08:23:24;;;;;;;10.38;4.43;;;;;;;12.12;67.40;97089.19;4497236;32;20061;-81
2022/01/04 08:25:52;;;;;;;12.25;5.30;;;;;;;11.91;68.56;97082.81;4492796;32;20578;-82
2022/01/04 08:28:19;;;;;;;12.25;4.62;;;;;;;12.21;67.35;97086.03;4492829;32;20096;-81
2022/01/04 08:30:46;;;;;;;10.88;4.47;;;;;;;12.08;68.13;97098.91;4479354;32;20194;-81
2022/01/04 08:33:13;;;;;;;12.57;4.85;;;;;;;11.91;68.94;97103.50;4496608;32;20824;-82
2022/01/04 08:35:40;;;;;;;13.50;5.35;;;;;;;12.43;67.26;97099.22;4491111;32;20073;-79
2022/01/04 08:38:07;;;;;;;11.70;4.65;;;;;;;11.40;70.48;97096.28;4477147;32;20092;-80
2022/01/04 08:40:35;;;;;;;13.48;5.28;;;;;;;11.42;70.96;97094.44;4493383;32;20147;-82
2022/01/04 08:43:02;;;;;;;11.57;5.22;;;;;;;11.29;71.61;97085.78;4493526;32;20093;-81
2022/01/04 08:45:29;;;;;;;13.00;5.68;;;;;;;11.50;71.09;97083.63;4490106;32;20123;-80
2022/01/04 08:47:57;;;;;;;12.30;4.97;;;;;;;11.70;70.67;97092.75;4489444;32;20100;-80
2022/01/04 08:50:29;;;;;;;12.45;5.15;;;;;;;11.51;71.15;97080.13;4491553;32;20419;-79
2022/01/04 08:52:57;;;;;;;11.73;4.70;;;;;;;11.11;72.68;97082.53;4480003;32;20458;-80
2022/01/04 08:55:24;;;;;;;13.50;5.20;;;;;;;10.82;73.74;97071.38;4493762;32;20107;-81
2022/01/04 08:57:52;;;;;;;12.45;5.57;;;;;;;10.96;73.58;97068.81;4492852;32;20171;-80
2022/01/04 09:00:19;;;;;;;11.95;5.00;;;;;;;11.35;72.15;97074.22;4494294;32;20122;-79
2022/01/04 09:02:46;;;;;;;11.50;4.72;;;;;;;10.74;74.10;97055.53;4492198;32;20116;-79
2022/01/04 09:05:13;;;;;;;13.55;5.55;;;;;;;10.57;75.02;97042.78;4493050;32;20076;-80
2022/01/04 09:07:40;;;;;;;13.02;5.55;;;;;;;10.12;77.06;97040.16;4494608;32;20137;-80
2022/01/04 09:10:08;;;;;;;12.18;4.47;;;;;;;10.82;75.57;97044.72;4478053;32;20056;-79
2022/01/04 09:12:51;;;;;;;8.40;3.37;;;;;;;11.07;74.84;97037.19;4492812;32;20113;-79
2022/01/04 09:15:47;;;;;;;10.02;3.90;;;;;;;11.32;73.70;97033.94;4491782;32;20057;-80
2022/01/04 09:21:25;;;;;;;8.50;3.50;;;;;;;11.95;70.41;97024.84;4488629;32;20117;-78
2022/01/04 09:23:53;;;;;;;8.80;3.65;;;;;;;11.20;73.02;97020.03;4488355;32;20115;-80
2022/01/04 09:26:22;;;;;;;9.95;3.58;;;;;;;11.22;74.01;97022.50;4474671;32;20125;-78
2022/01/04 09:28:50;;;;;;;8.77;3.50;;;;;;;11.33;73.52;97012.34;4489145;32;20120;-77
2022/01/04 09:31:21;;;;;;;9.38;3.30;;;;;;;11.30;72.58;96991.88;4489770;32;20080;-78
2022/01/04 09:33:49;;;;;;;8.98;3.28;;;;;;;11.25;72.94;96988.75;4490043;32;20447;-77
2022/01/04 09:36:33;;;;;;;11.82;3.30;;;;;;;11.19;72.66;96971.06;4490431;32;20167;-79
2022/01/04 09:39:05;;;;;;;10.40;3.60;;;;;;;10.66;75.30;96975.16;4488754;32;20163;-79
2022/01/04 09:41:32;;;;;;;9.90;4.25;;;;;;;11.34;72.41;96985.59;4476129;32;20076;-78
2022/01/04 09:44:00;;;;;;;11.30;4.05;;;;;;;12.01;70.23;96993.41;4490944;32;20136;-79
2022/01/04 09:46:27;;;;;;;11.52;3.83;;;;;;;11.62;71.33;96989.84;4492121;32;20072;-80
2022/01/04 09:48:54;;;;;;;10.85;4.20;;;;;;;11.59;72.15;96982.31;4492737;32;20060;-79
2022/01/04 09:51:21;;;;;;;10.68;4.25;;;;;;;11.48;72.34;96970.06;4477204;32;20123;-77
2022/01/04 09:53:49;;;;;;;8.70;3.33;;;;;;;11.88;70.62;96949.44;4490028;32;20413;-80
2022/01/04 09:56:16;;;;;;;8.63;3.42;;;;;;;11.78;70.45;96956.09;4474879;32;20139;-78
2022/01/04 09:58:43;;;;;;;10.70;4.05;;;;;;;11.53;71.45;96957.69;4494096;32;20084;-78
2022/01/04 10:01:24;;;;;;;10.40;4.12;;;;;;;11.91;70.21;96974.25;4491099;32;20075;-78
2022/01/04 10:04:12;;;;;;;10.20;4.30;;;;;;;12.03;70.22;96983.81;4465792;32;20187;-78
2022/01/04 10:06:41;;;;;;;11.68;4.62;;;;;;;12.98;67.27;96986.00;4490310;32;20104;-77
2022/01/04 10:09:11;;;;;;;11.27;4.68;;;;;;;12.94;66.92;96972.44;4490869;32;20156;-79
2022/01/04 10:11:44;;;;;;;10.30;4.20;;;;;;;12.85;67.03;96960.13;4492362;32;20095;-79
2022/01/04 10:14:31;;;;;;;10.88;4.82;;;;;;;12.58;68.40;96957.69;4490311;31;20122;-83
2022/01/04 10:17:06;;;;;;;11.10;4.55;;;;;;;12.80;67.78;96940.69;4486830;32;20710;-82
2022/01/04 10:19:38;;;;;;;9.75;4.20;;;;;;;12.81;67.35;96932.81;4487095;32;20088;-82
2022/01/04 10:22:13;;;;;;;13.27;4.50;;;;;;;12.75;67.34;96933.22;4487007;32;20073;-81
2022/01/04 10:24:42;;;;;;;12.07;4.25;;;;;;;12.44;68.62;96929.31;4487137;32;20180;-81
2022/01/04 10:27:39;;;;;;;12.30;4.50;;;;;;;12.82;67.82;96939.63;4472921;32;20168;-81
2022/01/04 10:30:28;;;;;;;10.02;3.92;;;;;;;12.52;68.64;96936.56;4486650;32;20107;-80
2022/01/04 10:32:54;;;;;;;;;;;;;;;12.56;68.75;96932.84;4473198;32;20080;-80
2022/01/04 10:35:48;;;;;;;10.40;4.25;;;;;;;12.43;69.02;96927.66;4487097;32;19990;-80
2022/01/04 10:38:20;;;;;;;9.63;4.30;;;;;;;12.92;67.02;96925.12;4486709;32;20104;-82
2022/01/04 10:40:50;;;;;;;11.77;4.40;;;;;;;12.71;68.33;96932.62;4486878;32;20150;-82
2022/01/04 10:43:22;;;;;;;12.60;4.62;;;;;;;12.98;66.86;96921.28;4472211;32;20136;-80
2022/01/04 10:45:50;;;;;;;11.23;4.10;;;;;;;13.01;66.76;96924.47;4486033;32;20712;-81
2022/01/04 10:48:34;;;;;;;10.13;3.97;;;;;;;12.75;68.03;96931.44;4472634;32;20394;-81
2022/01/04 10:51:09;;;;;;;11.90;4.30;;;;;;;12.43;68.54;96912.13;4486551;32;20147;-81
2022/01/04 10:53:39;;;;;;;10.13;4.03;;;;;;;12.37;70.01;96907.41;4472820;32;20123;-80
2022/01/04 10:56:28;;;;;;;10.40;4.00;;;;;;;12.11;70.34;96901.38;4472895;32;20168;-83
2022/01/04 10:58:56;;;;;;;9.38;3.42;;;;;;;12.88;67.63;96904.75;4486584;32;20486;-82
2022/01/04 11:01:30;;;;;;;11.70;4.07;;;;;;;12.62;68.35;96904.78;4487272;32;20102;-82
2022/01/04 11:04:01;;;;;;;10.43;3.92;;;;;;;12.88;67.19;96895.22;4473151;32;20107;-81
2022/01/04 11:06:36;;;;;;;10.77;4.07;;;;;;;12.21;69.59;96899.00;4486783;32;20168;-82
2022/01/04 11:09:04;;;;;;;10.20;4.25;;;;;;;12.57;68.91;96901.69;4488094;32;20119;-82
2022/01/04 11:11:31;;;;;;;8.45;3.70;;;;;;;12.74;68.09;96883.22;4488174;32;20088;-82
2022/01/04 11:13:59;;;;;;;9.65;3.87;;;;;;;12.99;66.86;96871.16;4488567;32;20127;-82
2022/01/04 11:16:27;;;;;;;10.30;3.47;;;;;;;12.72;68.02;96879.09;4473999;32;20132;-82
2022/01/04 11:18:56;;;;;;;9.32;3.70;;;;;;;12.37;69.72;96877.19;4486724;32;20157;-82
2022/01/04 11:21:26;;;;;;;9.05;3.50;;;;;;;12.55;69.29;96882.03;4472518;32;20107;-80
2022/01/04 11:23:55;;;;;;;10.27;3.58;;;;;;;12.65;68.82;96888.19;4478905;32;20204;-80
2022/01/04 11:26:23;;;;;;;8.30;3.35;;;;;;;12.91;68.37;96897.56;4486361;32;20119;-79
2022/01/04 11:28:51;;;;;;;10.07;3.85;;;;;;;13.05;67.15;96886.25;4472057;32;20378;-77
2022/01/04 11:31:33;;;;;;;10.38;3.15;;;;;;;13.20;67.42;96874.00;4486247;32;20438;-77
2022/01/04 11:34:10;;;;;;;9.43;3.58;;;;;;;13.21;67.19;96873.06;4485773;32;20122;-78
2022/01/04 11:36:43;;;;;;;8.25;3.22;;;;;;;12.67;69.16;96863.06;4486715;32;20473;-78
2022/01/04 11:39:33;;;;;;;7.43;3.00;;;;;;;13.47;66.20;96861.63;4472332;32;20124;-78
2022/01/04 11:42:04;;;;;;;10.05;3.10;;;;;;;12.84;68.58;96862.69;4474379;32;20155;-79
2022/01/04 11:44:31;;;;;;;8.68;3.45;;;;;;;13.17;67.05;96863.81;4486288;32;20170;-78
2022/01/04 11:47:05;;;;;;;8.48;3.12;;;;;;;13.93;64.95;96863.44;4469640;32;20544;-78